createdAt,value
2018-11-28T00:00:05.967Z,40.83
2018-11-28T00:02:34.407Z,39.40
2018-11-28T00:05:02.769Z,37.77
2018-11-28T00:07:31.163Z,44.47
2018-11-28T00:09:59.502Z,41.17
2018-11-28T00:12:28.112Z,41.57
2018-11-28T00:14:56.536Z,41.90
2018-11-28T00:17:24.948Z,39.20
2018-11-28T00:19:53.296Z,46.53
2018-11-28T00:22:21.807Z,43.73
2018-11-28T00:24:50.209Z,43.23
2018-11-28T00:27:18.784Z,40.87
2018-11-28T00:29:47.168Z,42.27
2018-11-28T00:32:15.775Z,39.77
2018-11-28T00:34:44.091Z,41.43
2018-11-28T00:37:13.295Z,42.20
2018-11-28T00:39:42.432Z,42.00
2018-11-28T00:42:10.806Z,40.90
2018-11-28T00:44:39.176Z,43.97
2018-11-28T00:47:07.588Z,44.00
2018-11-28T00:49:35.968Z,45.30
2018-11-28T00:52:04.360Z,42.47
2018-11-28T00:54:32.744Z,43.27
2018-11-28T00:57:01.178Z,42.80
2018-11-28T00:59:29.528Z,43.67
2018-11-28T01:01:58.698Z,46.47
2018-11-28T01:04:27.145Z,38.73
2018-11-28T01:06:55.519Z,46.43
2018-11-28T01:09:24.040Z,44.13
2018-11-28T01:11:52.444Z,42.53
2018-11-28T01:14:20.923Z,41.47
2018-11-28T01:16:49.306Z,39.57
2018-11-28T01:19:17.660Z,43.63
2018-11-28T01:21:46.068Z,42.83
2018-11-28T01:24:14.450Z,41.57
2018-11-28T01:26:42.818Z,45.77
2018-11-28T01:29:11.273Z,43.57
2018-11-28T01:31:39.722Z,45.40
2018-11-28T01:34:08.136Z,47.77
2018-11-28T01:36:36.541Z,46.87
2018-11-28T01:39:04.981Z,54.00
2018-11-28T01:41:33.341Z,55.17
2018-11-28T01:44:01.716Z,46.73
2018-11-28T01:46:30.099Z,48.03
2018-11-28T01:48:58.497Z,46.97
2018-11-28T01:51:26.921Z,48.00
2018-11-28T01:53:55.333Z,47.90
2018-11-28T01:56:23.704Z,49.47
2018-11-28T01:58:52.076Z,45.87
2018-11-28T02:01:20.514Z,45.30
2018-11-28T02:03:48.876Z,46.73
2018-11-28T02:06:17.283Z,43.37
2018-11-28T02:08:45.742Z,45.73
2018-11-28T02:11:14.214Z,47.70
2018-11-28T02:13:42.576Z,42.63
2018-11-28T02:16:11.008Z,40.47
2018-11-28T02:18:39.381Z,47.77
2018-11-28T02:21:07.762Z,44.80
2018-11-28T02:23:36.142Z,46.27
2018-11-28T02:26:04.494Z,45.50
2018-11-28T02:28:32.947Z,46.33
2018-11-28T02:31:02.086Z,40.60
2018-11-28T02:33:30.482Z,48.00
2018-11-28T02:35:58.870Z,48.23
2018-11-28T02:38:27.414Z,43.13
2018-11-28T02:40:56.582Z,46.30
2018-11-28T02:43:24.995Z,43.47
2018-11-28T02:45:53.334Z,44.50
2018-11-28T02:48:22.528Z,45.33
2018-11-28T02:50:51.676Z,38.83
2018-11-28T02:53:20.046Z,43.33
2018-11-28T02:55:48.459Z,41.80
2018-11-28T02:58:16.915Z,42.47
2018-11-28T03:00:45.293Z,43.47
2018-11-28T03:03:13.689Z,43.10
2018-11-28T03:05:42.087Z,41.70
2018-11-28T03:08:10.545Z,43.90
2018-11-28T03:10:38.897Z,40.33
2018-11-28T03:13:07.302Z,42.57
2018-11-28T03:15:35.668Z,41.73
2018-11-28T03:18:04.062Z,39.27
2018-11-28T03:20:32.443Z,44.70
2018-11-28T03:23:00.860Z,44.63
2018-11-28T03:25:30.028Z,42.27
2018-11-28T03:27:58.401Z,40.63
2018-11-28T03:30:26.811Z,40.63
2018-11-28T03:32:55.211Z,40.97
2018-11-28T03:35:24.342Z,40.97
2018-11-28T03:37:52.763Z,39.00
2018-11-28T03:40:21.105Z,41.90
2018-11-28T03:42:49.472Z,42.23
2018-11-28T03:45:17.864Z,39.37
2018-11-28T03:47:46.229Z,42.87
2018-11-28T03:50:14.649Z,38.77
2018-11-28T03:52:43.029Z,42.80
2018-11-28T03:55:11.405Z,39.63
2018-11-28T03:57:39.799Z,48.97
2018-11-28T04:00:08.166Z,41.00
2018-11-28T04:02:36.517Z,41.43
2018-11-28T04:05:04.891Z,40.50
2018-11-28T04:07:33.264Z,46.60
2018-11-28T04:10:01.663Z,42.50
2018-11-28T04:12:30.055Z,45.03
2018-11-28T04:14:58.439Z,44.60
2018-11-28T04:17:26.801Z,44.50
2018-11-28T04:19:55.189Z,41.87
2018-11-28T04:22:23.543Z,43.43
2018-11-28T04:24:51.946Z,43.90
2018-11-28T04:27:20.397Z,41.80
2018-11-28T04:29:48.845Z,44.97
2018-11-28T04:32:17.223Z,42.80
2018-11-28T04:34:46.342Z,41.87
2018-11-28T04:37:14.737Z,44.10
2018-11-28T04:39:43.136Z,39.57
2018-11-28T04:42:11.527Z,44.20
2018-11-28T04:44:39.905Z,41.47
2018-11-28T04:47:08.279Z,42.87
2018-11-28T04:49:36.655Z,44.20
2018-11-28T04:52:05.013Z,46.63
2018-11-28T04:54:33.381Z,44.60
2018-11-28T04:57:01.777Z,43.67
2018-11-28T04:59:30.127Z,49.97
2018-11-28T05:01:58.499Z,44.17
2018-11-28T05:04:26.916Z,47.57
2018-11-28T05:07:13.494Z,45.63
2018-11-28T05:09:42.600Z,52.67
2018-11-28T05:12:10.985Z,52.37
2018-11-28T05:14:39.378Z,48.33
2018-11-28T05:17:07.756Z,50.87
2018-11-28T05:19:36.148Z,52.50
2018-11-28T05:22:04.489Z,51.40
2018-11-28T05:24:32.845Z,50.40
2018-11-28T05:27:01.992Z,59.00
2018-11-28T05:29:30.347Z,54.43
2018-11-28T05:31:58.717Z,52.17
2018-11-28T05:34:27.131Z,50.27
2018-11-28T05:36:55.613Z,54.93
2018-11-28T05:39:23.997Z,53.53
2018-11-28T05:41:57.396Z,54.40
2018-11-28T05:44:25.775Z,58.20
2018-11-28T05:46:54.129Z,55.63
2018-11-28T05:49:22.537Z,54.33
2018-11-28T05:51:50.913Z,55.80
2018-11-28T05:54:20.293Z,55.77
2018-11-28T05:56:47.769Z,53.57
2018-11-28T05:59:16.160Z,59.40
2018-11-28T06:01:44.503Z,61.60
2018-11-28T06:04:13.037Z,55.83
2018-11-28T06:06:41.401Z,61.17
2018-11-28T06:09:09.877Z,59.97
2018-11-28T06:11:38.241Z,55.07
2018-11-28T06:16:55.345Z,58.92
2018-11-28T06:19:23.691Z,58.43
2018-11-28T06:21:52.074Z,58.63
2018-11-28T06:24:20.475Z,53.07
2018-11-28T06:26:48.826Z,49.90
2018-11-28T06:29:17.245Z,54.67
2018-11-28T06:31:45.646Z,51.90
2018-11-28T06:34:14.005Z,49.17
2018-11-28T06:36:42.775Z,52.23
2018-11-28T06:39:11.231Z,52.70
2018-11-28T06:41:39.797Z,54.90
2018-11-28T06:44:08.269Z,51.47
2018-11-28T06:46:36.809Z,56.40
2018-11-28T06:49:05.259Z,54.10
2018-11-28T06:51:33.605Z,58.47
2018-11-28T06:54:02.021Z,65.00
2018-11-28T06:56:30.385Z,55.23
2018-11-28T06:58:58.769Z,59.60
2018-11-28T07:01:27.189Z,57.97
2018-11-28T07:03:55.565Z,61.57
2018-11-28T07:06:23.913Z,57.40
2018-11-28T07:08:52.302Z,55.63
2018-11-28T07:11:20.788Z,58.77
2018-11-28T07:13:49.153Z,53.53
2018-11-28T07:16:17.605Z,55.47
2018-11-28T07:19:04.791Z,55.03
2018-11-28T07:21:33.245Z,54.07
2018-11-28T07:24:01.583Z,50.93
2018-11-28T07:26:30.101Z,58.50
2018-11-28T07:28:58.482Z,57.80
2018-11-28T07:31:27.096Z,55.43
2018-11-28T07:33:55.481Z,57.53
2018-11-28T07:36:25.151Z,56.03
2018-11-28T07:38:54.211Z,53.87
2018-11-28T07:41:21.945Z,46.97
2018-11-28T07:43:51.077Z,50.77
2018-11-28T07:46:19.436Z,50.33
2018-11-28T07:48:47.806Z,53.20
2018-11-28T07:51:16.169Z,52.23
2018-11-28T07:53:44.527Z,53.90
2018-11-28T07:56:12.954Z,52.80
2018-11-28T07:58:42.093Z,46.07
2018-11-28T08:01:10.473Z,45.07
2018-11-28T08:03:38.850Z,48.97
2018-11-28T08:06:07.218Z,51.83
2018-11-28T08:08:35.613Z,43.87
2018-11-28T08:11:03.989Z,51.07
2018-11-28T08:13:32.375Z,49.27
2018-11-28T08:16:00.730Z,48.87
2018-11-28T08:18:29.117Z,45.87
2018-11-28T08:20:57.507Z,48.27
2018-11-28T08:23:25.875Z,50.07
2018-11-28T08:25:54.263Z,46.67
2018-11-28T08:28:22.641Z,46.93
2018-11-28T08:30:50.997Z,47.90
2018-11-28T08:33:19.348Z,48.07
2018-11-28T08:35:47.837Z,49.67
2018-11-28T08:38:16.107Z,45.83
2018-11-28T08:40:44.477Z,52.20
2018-11-28T08:43:12.948Z,50.87
2018-11-28T08:45:41.342Z,51.57
2018-11-28T08:48:09.723Z,47.53
2018-11-28T08:50:38.111Z,48.33
2018-11-28T08:53:07.254Z,48.37
2018-11-28T08:55:35.624Z,47.00
2018-11-28T08:58:03.974Z,48.37
2018-11-28T09:00:33.169Z,51.47
2018-11-28T09:03:01.514Z,50.50
2018-11-28T09:05:29.863Z,56.33
2018-11-28T09:07:58.242Z,46.87
2018-11-28T09:10:26.614Z,45.03
2018-11-28T09:12:55.063Z,51.00
2018-11-28T09:15:23.373Z,51.63
2018-11-28T09:17:51.765Z,46.83
2018-11-28T09:20:20.910Z,52.03
2018-11-28T09:22:49.321Z,51.87
2018-11-28T09:25:18.471Z,50.93
2018-11-28T09:27:46.913Z,48.97
2018-11-28T09:30:15.270Z,49.83
2018-11-28T09:32:44.394Z,53.57
2018-11-28T09:35:12.800Z,50.63
2018-11-28T09:37:45.540Z,48.97
2018-11-28T09:40:09.498Z,49.97
2018-11-28T09:42:38.628Z,55.27
2018-11-28T09:45:07.095Z,47.37
2018-11-28T09:47:35.468Z,51.33
2018-11-28T09:50:03.873Z,47.73
2018-11-28T09:52:32.268Z,48.23
2018-11-28T09:55:00.615Z,48.03
2018-11-28T09:57:28.996Z,54.13
2018-11-28T09:59:57.350Z,53.83
2018-11-28T10:02:25.717Z,51.83
2018-11-28T10:04:54.188Z,46.90
2018-11-28T10:07:22.578Z,51.17
2018-11-28T10:09:51.028Z,49.83
2018-11-28T10:12:19.815Z,50.87
2018-11-28T10:14:47.829Z,48.47
2018-11-28T10:17:16.944Z,48.57
2018-11-28T10:19:46.041Z,50.87
2018-11-28T10:22:14.399Z,52.70
2018-11-28T10:24:43.527Z,51.00
2018-11-28T10:27:11.943Z,47.03
2018-11-28T10:29:40.299Z,51.17
2018-11-28T10:32:09.417Z,51.67
2018-11-28T10:34:37.773Z,52.40
2018-11-28T10:37:06.133Z,50.10
2018-11-28T10:39:34.485Z,51.40
2018-11-28T10:42:02.887Z,54.73
2018-11-28T10:44:31.231Z,54.40
2018-11-28T10:46:59.580Z,55.63
2018-11-28T10:49:27.923Z,51.10
2018-11-28T10:51:56.275Z,52.80
2018-11-28T10:54:24.646Z,53.43
2018-11-28T10:56:53.098Z,50.57
2018-11-28T10:59:21.435Z,51.40
2018-11-28T11:01:49.855Z,51.73
2018-11-28T11:04:18.198Z,46.33
2018-11-28T11:06:46.531Z,51.03
2018-11-28T11:09:14.886Z,51.03
2018-11-28T11:11:43.254Z,46.77
2018-11-28T11:14:11.669Z,51.03
2018-11-28T11:16:40.046Z,48.57
2018-11-28T11:19:08.476Z,47.00
2018-11-28T11:21:37.601Z,45.73
2018-11-28T11:24:05.943Z,47.53
2018-11-28T11:26:35.071Z,47.73
2018-11-28T11:29:03.479Z,45.87
2018-11-28T11:31:31.911Z,45.37
2018-11-28T11:34:00.354Z,42.80
2018-11-28T11:36:28.705Z,46.73
2018-11-28T11:38:57.067Z,40.93
2018-11-28T11:41:25.438Z,43.73
2018-11-28T11:43:53.801Z,40.40
2018-11-28T11:46:22.149Z,40.83
2018-11-28T11:48:50.570Z,43.57
2018-11-28T11:51:19.726Z,46.23
2018-11-28T11:53:48.072Z,42.53
2018-11-28T11:56:16.444Z,49.53
2018-11-28T11:58:44.789Z,42.50
2018-11-28T12:01:13.158Z,43.43
2018-11-28T12:03:42.270Z,42.67
2018-11-28T12:06:10.634Z,44.17
2018-11-28T12:08:39.806Z,42.50
2018-11-28T12:11:08.295Z,44.70
2018-11-28T12:13:36.745Z,42.47
2018-11-28T12:16:05.121Z,41.43
2018-11-28T12:18:33.530Z,44.00
2018-11-28T12:21:01.877Z,45.07
2018-11-28T12:23:30.272Z,44.13
2018-11-28T12:25:58.670Z,45.63
2018-11-28T12:28:27.038Z,41.63
2018-11-28T12:30:55.395Z,39.03
2018-11-28T12:33:23.803Z,43.30
2018-11-28T12:35:52.849Z,38.97
2018-11-28T12:38:21.204Z,40.47
2018-11-28T12:40:49.563Z,40.77
2018-11-28T12:43:18.005Z,41.43
2018-11-28T12:45:46.337Z,38.70
2018-11-28T12:48:16.399Z,39.90
2018-11-28T12:50:44.760Z,38.50
2018-11-28T12:53:13.147Z,39.17
2018-11-28T12:55:41.559Z,40.67
2018-11-28T12:58:10.625Z,37.27
2018-11-28T13:00:38.976Z,35.93
2018-11-28T13:03:08.096Z,36.57
2018-11-28T13:05:36.440Z,34.67
2018-11-28T13:08:04.818Z,34.93
2018-11-28T13:10:33.181Z,40.87
2018-11-28T13:13:01.560Z,35.80
2018-11-28T13:15:30.023Z,37.73
2018-11-28T13:17:58.485Z,37.67
2018-11-28T13:20:26.852Z,35.77
2018-11-28T13:22:55.561Z,39.87
2018-11-28T13:25:24.004Z,39.87
2018-11-28T13:27:52.423Z,42.43
2018-11-28T13:30:20.799Z,37.20
2018-11-28T13:32:49.157Z,37.93
2018-11-28T13:35:17.543Z,33.47
2018-11-28T13:37:45.882Z,34.93
2018-11-28T13:40:14.265Z,36.57
2018-11-28T13:42:42.687Z,33.53
2018-11-28T13:45:11.033Z,32.97
2018-11-28T13:47:39.424Z,35.63
2018-11-28T13:50:08.561Z,35.40
2018-11-28T13:52:37.044Z,32.50
2018-11-28T13:57:34.329Z,33.57
2018-11-28T14:00:02.807Z,34.10
2018-11-28T14:02:32.263Z,35.90
2018-11-28T14:04:59.555Z,34.67
2018-11-28T14:07:28.028Z,36.30
2018-11-28T14:09:56.387Z,36.33
2018-11-28T14:12:24.797Z,35.57
2018-11-28T14:14:53.145Z,34.63
2018-11-28T14:17:21.587Z,38.13
2018-11-28T14:19:49.927Z,37.93
2018-11-28T14:22:18.303Z,36.83
2018-11-28T14:24:46.633Z,37.80
2018-11-28T14:27:15.173Z,37.13
2018-11-28T14:29:43.485Z,42.97
2018-11-28T14:32:11.880Z,40.87
2018-11-28T14:34:40.233Z,39.40
2018-11-28T14:37:08.711Z,42.17
2018-11-28T14:39:37.218Z,39.80
2018-11-28T14:42:05.542Z,40.73
2018-11-28T14:44:33.967Z,41.27
2018-11-28T14:47:02.512Z,42.33
2018-11-28T14:49:30.777Z,45.17
2018-11-28T14:51:59.136Z,47.93
2018-11-28T14:54:28.255Z,47.97
2018-11-28T14:56:56.634Z,46.10
2018-11-28T14:59:25.048Z,48.67
2018-11-28T15:01:53.413Z,49.03
2018-11-28T15:04:21.781Z,48.53
2018-11-28T15:06:50.146Z,45.40
2018-11-28T15:09:18.559Z,48.97
2018-11-28T15:11:46.922Z,50.17
2018-11-28T15:14:15.311Z,50.97
2018-11-28T15:16:43.714Z,50.93
2018-11-28T15:19:12.059Z,53.70
2018-11-28T15:21:40.432Z,48.10
2018-11-28T15:24:08.777Z,49.73
2018-11-28T15:26:37.319Z,50.83
2018-11-28T15:29:05.680Z,51.33
2018-11-28T15:31:34.013Z,49.70
2018-11-28T15:34:02.453Z,49.03
2018-11-28T15:36:30.813Z,46.33
2018-11-28T15:38:59.220Z,50.63
2018-11-28T15:41:27.589Z,53.63
2018-11-28T15:43:55.953Z,60.93
2018-11-28T15:46:24.318Z,57.93
2018-11-28T15:48:52.683Z,53.07
2018-11-28T15:51:21.816Z,53.30
2018-11-28T15:53:50.177Z,57.30
2018-11-28T15:56:18.538Z,55.83
2018-11-28T15:58:47.078Z,57.27
2018-11-28T16:01:15.440Z,47.70
2018-11-28T16:03:43.813Z,49.23
2018-11-28T16:06:12.174Z,49.73
2018-11-28T16:08:40.522Z,52.17
2018-11-28T16:11:08.901Z,46.20
2018-11-28T16:13:38.031Z,47.03
2018-11-28T16:16:06.441Z,49.40
2018-11-28T16:18:34.773Z,60.17
2018-11-28T16:21:03.149Z,55.10
2018-11-28T16:23:32.302Z,53.67
2018-11-28T16:26:00.675Z,51.47
2018-11-28T16:28:29.020Z,53.03
2018-11-28T16:30:57.419Z,56.10
2018-11-28T16:33:25.781Z,53.07
2018-11-28T16:35:54.182Z,55.27
2018-11-28T16:38:22.522Z,46.23
2018-11-28T16:40:50.943Z,47.20
2018-11-28T16:43:19.281Z,42.60
2018-11-28T16:45:47.645Z,45.73
2018-11-28T16:48:16.851Z,44.63
2018-11-28T16:50:45.374Z,44.30
2018-11-28T16:53:13.801Z,47.63
2018-11-28T16:55:42.226Z,48.20
2018-11-28T16:58:10.585Z,46.03
2018-11-28T17:00:38.963Z,44.97
2018-11-28T17:03:07.608Z,46.20
2018-11-28T17:05:35.987Z,45.37
2018-11-28T17:08:04.351Z,41.47
2018-11-28T17:10:32.851Z,42.83
2018-11-28T17:13:01.252Z,45.10
2018-11-28T17:15:29.636Z,44.57
2018-11-28T17:17:58.038Z,45.07
2018-11-28T17:20:26.413Z,43.20
2018-11-28T17:22:54.782Z,49.37
2018-11-28T17:25:23.157Z,40.43
2018-11-28T17:27:52.333Z,43.87
2018-11-28T17:30:20.733Z,43.93
2018-11-28T17:32:49.834Z,46.63
2018-11-28T17:35:18.237Z,45.17
2018-11-28T17:37:46.599Z,45.70
2018-11-28T17:40:15.800Z,40.40
2018-11-28T17:42:44.962Z,44.57
2018-11-28T17:45:13.343Z,41.20
2018-11-28T17:47:41.745Z,40.67
2018-11-28T17:50:10.192Z,41.50
2018-11-28T17:52:38.761Z,40.63
2018-11-28T17:55:07.162Z,41.43
2018-11-28T17:57:35.524Z,45.20
2018-11-28T18:00:03.876Z,46.87
2018-11-28T18:02:32.410Z,41.37
2018-11-28T18:05:00.919Z,42.97
2018-11-28T18:07:29.479Z,45.10
2018-11-28T18:09:58.100Z,44.40
2018-11-28T18:13:56.325Z,43.23
2018-11-28T18:16:29.480Z,45.10
2018-11-28T18:18:53.433Z,42.87
2018-11-28T18:21:21.893Z,45.63
2018-11-28T18:23:50.981Z,48.57
2018-11-28T18:26:19.412Z,47.30
2018-11-28T18:28:47.789Z,43.87
2018-11-28T18:31:16.252Z,42.33
2018-11-28T18:33:45.372Z,45.23
2018-11-28T18:36:13.765Z,41.33
2018-11-28T18:38:42.148Z,43.00
2018-11-28T18:41:10.525Z,44.23
2018-11-28T18:43:38.852Z,43.60
2018-11-28T18:46:08.022Z,45.90
2018-11-28T18:48:36.362Z,43.07
2018-11-28T18:51:04.739Z,42.53
2018-11-28T18:53:33.133Z,44.17
2018-11-28T18:56:01.491Z,43.57
2018-11-28T18:58:30.597Z,41.60
2018-11-28T19:00:58.952Z,40.27
2018-11-28T19:03:28.068Z,46.53
2018-11-28T19:05:57.204Z,40.40
2018-11-28T19:08:25.550Z,42.57
2018-11-28T19:10:53.937Z,43.80
2018-11-28T19:13:22.298Z,43.80
2018-11-28T19:15:50.715Z,44.47
2018-11-28T19:18:19.090Z,49.17
2018-11-28T19:20:47.443Z,45.70
2018-11-28T19:23:15.796Z,43.37
2018-11-28T19:25:49.772Z,42.87
2018-11-28T19:28:12.556Z,38.37
2018-11-28T19:30:41.688Z,41.47
2018-11-28T19:33:10.021Z,42.63
2018-11-28T19:35:39.157Z,44.07
2018-11-28T19:38:07.535Z,44.40
2018-11-28T19:40:35.916Z,43.07
2018-11-28T19:43:04.530Z,41.70
2018-11-28T19:45:32.726Z,42.80
2018-11-28T19:48:01.185Z,42.83
2018-11-28T19:50:29.628Z,44.27
2018-11-28T19:52:58.811Z,45.23
2018-11-28T19:55:27.184Z,42.07
2018-11-28T19:57:55.577Z,43.30
2018-11-28T20:00:24.128Z,47.33
2018-11-28T20:02:52.506Z,38.67
2018-11-28T20:05:21.094Z,41.10
2018-11-28T20:07:49.786Z,36.83
2018-11-28T20:10:18.138Z,39.90
2018-11-28T20:12:46.531Z,36.77
2018-11-28T20:15:14.916Z,38.33
2018-11-28T20:17:44.084Z,40.57
2018-11-28T20:20:12.450Z,33.60
2018-11-28T20:22:40.895Z,35.93
2018-11-28T20:25:09.251Z,36.93
2018-11-28T20:27:37.699Z,36.30
2018-11-28T20:30:06.080Z,37.53
2018-11-28T20:32:34.442Z,39.23
2018-11-28T20:35:03.189Z,36.07
2018-11-28T20:37:31.564Z,36.67
2018-11-28T20:39:59.947Z,38.50
2018-11-28T20:42:28.306Z,34.43
2018-11-28T20:44:56.842Z,37.63
2018-11-28T20:47:25.212Z,34.97
2018-11-28T20:49:54.350Z,34.27
2018-11-28T20:52:22.700Z,35.70
2018-11-28T20:54:51.139Z,39.13
2018-11-28T20:57:19.499Z,32.07
2018-11-28T20:59:47.838Z,33.93
2018-11-28T21:02:16.213Z,37.60
2018-11-28T21:04:45.344Z,36.57
2018-11-28T21:07:13.704Z,35.73
2018-11-28T21:09:42.094Z,36.47
2018-11-28T21:12:10.464Z,32.83
2018-11-28T21:14:38.802Z,37.40
2018-11-28T21:17:07.948Z,34.83
2018-11-28T21:19:36.332Z,34.73
2018-11-28T21:22:04.771Z,37.07
2018-11-28T21:24:33.904Z,35.53
2018-11-28T21:27:02.237Z,36.50
2018-11-28T21:29:31.393Z,36.37
2018-11-28T21:31:59.751Z,32.77
2018-11-28T21:34:28.186Z,33.90
2018-11-28T21:36:56.534Z,36.03
2018-11-28T21:39:25.204Z,32.90
2018-11-28T21:41:53.740Z,32.03
2018-11-28T21:44:23.036Z,34.67
2018-11-28T21:46:50.966Z,34.43
2018-11-28T21:49:19.512Z,36.63
2018-11-28T21:51:47.884Z,32.83
2018-11-28T21:54:17.073Z,31.80
2018-11-28T21:56:45.476Z,34.37
2018-11-28T21:59:13.838Z,36.83
2018-11-28T22:01:42.389Z,34.10
2018-11-28T22:04:10.834Z,35.33
2018-11-28T22:06:39.979Z,32.63
2018-11-28T22:09:09.223Z,32.67
2018-11-28T22:11:37.631Z,34.60
2018-11-28T22:14:05.993Z,33.80
2018-11-28T22:16:34.503Z,33.23
2018-11-28T22:19:02.907Z,32.53
2018-11-28T22:21:31.276Z,35.20
2018-11-28T22:23:59.602Z,35.70
2018-11-28T22:26:27.990Z,31.77
2018-11-28T22:28:56.334Z,31.23
2018-11-28T22:31:25.474Z,35.57
2018-11-28T22:33:53.893Z,33.67
2018-11-28T22:36:22.252Z,32.70
2018-11-28T22:38:50.583Z,37.73
2018-11-28T22:41:18.974Z,33.60
2018-11-28T22:43:47.654Z,34.57
2018-11-28T22:46:16.906Z,32.47
2018-11-28T22:48:45.300Z,36.03
2018-11-28T22:51:13.762Z,35.27
2018-11-28T22:53:42.118Z,33.83
2018-11-28T22:56:10.470Z,31.20
2018-11-28T22:58:39.698Z,38.67
2018-11-28T23:01:08.044Z,33.90
2018-11-28T23:03:36.384Z,34.00
2018-11-28T23:06:04.758Z,37.83
2018-11-28T23:08:33.227Z,36.17
2018-11-28T23:11:01.558Z,37.17
2018-11-28T23:13:30.890Z,36.30
2018-11-28T23:15:59.734Z,39.17
2018-11-28T23:18:28.166Z,34.57
2018-11-28T23:20:56.492Z,37.23
2018-11-28T23:23:24.922Z,38.33
2018-11-28T23:25:53.313Z,38.40
2018-11-28T23:28:21.627Z,37.67
2018-11-28T23:30:50.750Z,34.40
2018-11-28T23:33:20.080Z,32.90
2018-11-28T23:35:48.422Z,38.20
2018-11-28T23:38:17.568Z,36.20
2018-11-28T23:40:45.929Z,38.87
2018-11-28T23:43:14.418Z,34.57
2018-11-28T23:45:42.823Z,36.57
2018-11-28T23:48:11.210Z,32.63
2018-11-28T23:50:39.578Z,36.10
2018-11-28T23:53:07.942Z,38.40
2018-11-28T23:55:36.300Z,36.13
2018-11-28T23:58:04.638Z,33.97
